CCGS Terry Fox — CGTF — position and weather

sailwx.info

Track history (hours):
 
Tides and Currents Weather Stations Pressure Air Temp Water Temp Dewpoint Dewpoint Depression Visibility Wind Speed Wind Dir Waves Ship Positions

Oceanographic research ship CCGS Terry Fox (Canada)

Detailed information on ship capabilities available from ARCUS's ALIAS (Arctic Logistics Information and Support) project.

Last reported at 2017-Feb-22 16:32 UTC. Time now 2017-Feb-22 17:27 UTC.
Position N 48°58' W 057°57'.

Length 88 m; beam 17.82 m; draft 2 m.

Type: SAR. MMSI: 316122000.

Date/timePositionNaut miles runAvg speedWind from/ knotsBaromVisibWave heightAir tempDewpointWater temp
2017-Feb-22 16:32N 48°58' W 057°57'4 7.3
2017-Feb-22 16:00N 48°54' W 057°54'4 8.9 030 / 51015.7 -2.5-6.6
2017-Feb-22 15:32N 48°58' W 057°57'4 7.3
2017-Feb-22 15:00N 48°54' W 057°54'4 8.9 230 / 21016.5 -3.0-6.5
2017-Feb-22 14:32N 48°58' W 057°57'4 7.3
2017-Feb-22 14:00N 48°54' W 057°54'4 8.9 340 / 21017.6 -3.9-6.9
2017-Feb-22 13:32N 48°58' W 057°57'4 7.3
2017-Feb-22 13:00N 48°54' W 057°54'4 8.9 020 / 21018.8 -5.1-7.5
2017-Feb-22 12:32N 48°58' W 057°57'4 7.3
2017-Feb-22 12:00N 48°54' W 057°54'4 8.9 1019.4 -4.4-7.4
2017-Feb-22 11:32N 48°58' W 057°57'4 7.3
2017-Feb-22 11:00N 48°54' W 057°54'410.2 130 / 11019.6 -5.0-7.5
2017-Feb-22 10:33N 48°58' W 057°57'4 7.5
2017-Feb-22 10:00N 48°54' W 058°00'716.1 160 / 61019.4 -6.7-8.7
2017-Feb-22 09:33N 49°00' W 058°05'1 0.9
2017-Feb-22 09:00N 49°00' W 058°06'612.9 160 / 81019.5 -6.7-8.4
2017-Feb-22 08:33N 49°05' W 058°09'2 3.4
2017-Feb-22 08:00N 49°06' W 058°12'7 9.6 160 / 51019.7 -5.3-7.4
2017-Feb-22 07:19N 49°13' W 058°11'1 2.3
2017-Feb-22 07:00N 49°12' W 058°12'7 7.2 110 / 61019.5 -4.3-6.6
2017-Feb-22 06:00N 49°18' W 058°18'7 7.2 190 / 81020.0 -3.6-6.4
2017-Feb-22 05:00N 49°24' W 058°24'7 7.2 180 / 121020.5 -3.5-6.4
2017-Feb-22 04:00N 49°30' W 058°18'0 0.0 200 / 141020.6 -3.6-6.6
2017-Feb-22 03:00N 49°30' W 058°18'7 7.2 190 / 111020.9 -3.8-6.8
2017-Feb-22 02:00N 49°36' W 058°12'1312.6 200 / 111021.9 -3.9-6.9
2017-Feb-22 01:00N 49°48' W 058°06'7 7.1 200 / 131021.7 -4.2-7.1
2017-Feb-22 00:00N 49°54' W 058°00'1818.4 220 / 151021.6 -4.8-7.1
2017-Feb-21 23:00N 50°12' W 057°54'1312.6 220 / 121021.8 -5.4-7.7
2017-Feb-21 22:00N 50°24' W 057°48'1414.2 210 / 101021.9 -5.7-8.8
2017-Feb-21 21:00N 50°36' W 057°36'1312.6 230 / 121021.7 -5.9-9.7
2017-Feb-21 20:00N 50°48' W 057°30'7 7.1 240 / 121021.6 -7.0-10.0
2017-Feb-21 19:00N 50°54' W 057°24'1716.5 230 / 81020.8 -7.1-9.5
2017-Feb-21 18:00N 51°06' W 057°06'1414.2 240 / 101020.7 -6.6-9.2
2017-Feb-21 17:00N 51°18' W 056°54'0 0.0 210 / 81021.2 -5.4-8.0
2017-Feb-21 16:00N 51°18' W 056°54'7 7.1 210 / 41021.7 -5.8-9.0
2017-Feb-21 15:00N 51°12' W 056°48'0 0.0 280 / 11022.2 -4.5-7.7
2017-Feb-21 14:00N 51°12' W 056°48'4 3.8 070 / 11022.7 -5.8-8.7
2017-Feb-21 13:00N 51°12' W 056°54'1414.2 360 / 51022.6 -6.8-9.6
2017-Feb-21 12:00N 51°24' W 057°06'7 7.1 040 / 21022.3 -6.8-9.8
2017-Feb-21 11:00N 51°18' W 057°12'8 7.5 050 / 21022.0 -6.2-9.8
2017-Feb-21 10:00N 51°18' W 057°24'0 0.0 280 / 21021.8 -6.3-10.0
2017-Feb-21 09:00N 51°18' W 057°24'4 3.8 320 / 11021.8 -5.6-9.7
2017-Feb-21 08:00N 51°18' W 057°18'0 0.0 040 / 31021.1 -6.8-10.6
2017-Feb-21 07:00N 51°18' W 057°18'0 0.0 010 / 71020.6 -6.9-11.4
2017-Feb-21 06:00N 51°18' W 057°18'0 0.0 350 / 61020.8 -4.6-9.2
2017-Feb-21 05:00N 51°18' W 057°18'4 3.8 340 / 61020.7 -3.4-7.6
2017-Feb-21 04:00N 51°18' W 057°12'0 0.0 350 / 81020.8 -5.8-9.1
2017-Feb-21 03:00N 51°18' W 057°12'0 0.0 360 / 91021.0 -5.8-9.3
2017-Feb-21 02:00N 51°18' W 057°12'0 0.0 340 / 111021.0 -5.4-9.2
2017-Feb-21 00:00N 51°18' W 057°12'4 3.8 020 / 71019.8 -3.5-6.8
2017-Feb-20 23:00N 51°18' W 057°06'0 0.0 030 / 71018.8 -3.0-6.2
2017-Feb-20 22:00N 51°18' W 057°06'0 0.0 340 / 91017.9 10.4-3.1
2017-Feb-20 21:00N 51°18' W 057°06'0 0.0 300 / 11017.5 -1.8-4.8
2017-Feb-20 20:00N 51°18' W 057°06'0 0.0 060 / 11016.8 -1.8-4.7
2017-Feb-20 19:00N 51°18' W 057°06'4 3.8 060 / 51016.4 -2.7-5.5
2017-Feb-20 18:00N 51°18' W 057°00'0 0.0 020 / 81015.9 -2.9-6.2
2017-Feb-20 17:00N 51°18' W 057°00'6 6.0 360 / 61015.6 3.6-4.4
2017-Feb-20 16:00N 51°24' W 057°00'1414.2 020 / 61015.1 -3.3-6.0
2017-Feb-20 15:00N 51°12' W 056°48'0 0.0 350 / 51014.9 -1.8-4.8
2017-Feb-20 14:00N 51°12' W 056°48'0 0.0 020 / 41014.1 -4.5-5.7
2017-Feb-20 13:00N 51°12' W 056°48'10 9.6 030 / 31013.2 -5.5-6.5
2017-Feb-20 12:00N 51°18' W 057°00'7 7.1 020 / 51012.7 -5.1-7.6
2017-Feb-20 11:00N 51°24' W 057°06'10 9.6 360 / 81011.9 -5.5-7.0
2017-Feb-20 10:00N 51°18' W 057°18'0 0.0 360 / 91011.4 -5.3-8.1
2017-Feb-20 09:00N 51°18' W 057°18'0 0.0 020 / 61010.4 -5.4-8.5
2017-Feb-20 08:00N 51°18' W 057°18'4 3.8 010 / 91009.0 -5.5-8.2
2017-Feb-20 07:00N 51°18' W 057°12'0 0.0 030 / 61008.3 -5.2-7.3
2017-Feb-20 06:00N 51°18' W 057°12'0 0.0 360 / 11008.3 -6.3-7.8
2017-Feb-20 05:00N 51°18' W 057°12'4 3.8 140 / 51007.7 -6.0-7.7
2017-Feb-20 04:00N 51°18' W 057°06'0 0.0 050 / 51006.7 -5.7-8.3
2017-Feb-20 03:00N 51°18' W 057°06'0 0.0 030 / 71005.8 -5.8-8.4
2017-Feb-20 02:00N 51°18' W 057°06'0 0.0 030 / 81005.7 -5.9-8.6
2017-Feb-20 01:00N 51°18' W 057°06'0 0.0 010 / 41005.0 -6.5-8.8
2017-Feb-20 00:00N 51°18' W 057°06'0 0.0 300 / 61004.4 -7.8-9.8
2017-Feb-19 23:00N 51°18' W 057°06'0 0.0 300 / 51003.3 -7.7-10.3
2017-Feb-19 22:00N 51°18' W 057°06'4 3.8 270 / 61002.5 -7.5-10.6
2017-Feb-19 21:00N 51°18' W 057°00'0 0.0 280 / 51001.3 -7.0-10.5
2017-Feb-19 20:00N 51°18' W 057°00'0 0.0 230 / 21000.4 -3.4-9.0
2017-Feb-19 19:00N 51°18' W 057°00'0 0.0 200 / 3999.9 -4.5-10.0
2017-Feb-19 18:00N 51°18' W 057°00'4 3.8 210 / 4999.4 -5.6-10.7
2017-Feb-19 17:00N 51°18' W 056°54'0 0.0 210 / 3999.5 -5.2-10.7
2017-Feb-19 16:00N 51°18' W 056°54'0 0.0 180 / 2999.6 -5.6-10.2
2017-Feb-19 15:00N 51°18' W 056°54'7 7.1 270 / 4999.5 -7.4-10.6
2017-Feb-19 14:00N 51°12' W 056°48'0 0.0 290 / 7999.5 -7.2-9.8
2017-Feb-19 13:00N 51°12' W 056°48'10 9.6 290 / 10999.1 -7.5-9.3
2017-Feb-19 12:00N 51°18' W 057°00'7 7.1 270 / 7999.0 -8.8-10.7
2017-Feb-19 11:00N 51°24' W 057°06'6 6.0 270 / 9998.5 -9.4-11.0
2017-Feb-19 10:00N 51°18' W 057°06'0 0.0 230 / 8998.1 -8.5-10.5
2017-Feb-19 09:00N 51°18' W 057°06'0 0.0 270 / 8997.7 -8.0-10.1
2017-Feb-19 08:00N 51°18' W 057°06'0 0.0 240 / 8997.8 -8.3-9.6
2017-Feb-19 07:00N 51°18' W 057°06'4 3.8 240 / 8997.8 -8.4-9.8
2017-Feb-19 06:00N 51°18' W 057°00'0 0.0 240 / 9997.9 -8.1-9.9
2017-Feb-19 05:00N 51°18' W 057°00'0 0.0 270 / 14997.2 -7.3-9.5
2017-Feb-19 04:00N 51°18' W 057°00'0 0.0 250 / 14996.5 -6.1-8.1
2017-Feb-19 03:00N 51°18' W 057°00'0 0.0 260 / 13995.9 -4.9-7.1
2017-Feb-19 02:00N 51°18' W 057°00'0 0.0 220 / 19995.2 -4.4-6.8
2017-Feb-19 01:00N 51°18' W 057°00'0 0.0 230 / 17994.7 -3.9-5.9
2017-Feb-19 00:00N 51°18' W 057°00'0 0.0 220 / 19994.0 -3.7-5.4
2017-Feb-18 23:00N 51°18' W 057°00'0 0.0 220 / 18993.4 -3.8-5.5
2017-Feb-18 22:00N 51°18' W 057°00'0 0.0 210 / 21992.5 -3.9-5.2
2017-Feb-18 21:00N 51°18' W 057°00'4 3.8 210 / 18991.6 -3.7-4.6
2017-Feb-18 20:00N 51°18' W 057°06'4 3.8 220 / 17990.5 -3.2-3.9
2017-Feb-18 19:00N 51°18' W 057°00'0 0.0 210 / 13989.5 -2.9-3.6
2017-Feb-18 18:00N 51°18' W 057°00'0 0.0 230 / 8988.6 -3.0-3.8
2017-Feb-18 17:00N 51°18' W 057°00'4 3.8 250 / 8988.0 -3.7-4.1
2017-Feb-18 16:00N 51°18' W 056°54'4 3.8 260 / 5987.3 -2.3-2.6
2017-Feb-18 15:00N 51°18' W 057°00'4 3.8 020 / 5986.9 -2.7-3.0
2017-Feb-18 14:00N 51°18' W 056°54'0 0.0 030 / 8986.2 -2.8-3.0
2017-Feb-18 13:00N 51°18' W 056°54'4 3.8 040 / 7985.5 -2.9-3.1
2017-Feb-18 12:00N 51°18' W 057°00'6 6.0 040 / 8984.7 -3.0-3.2
2017-Feb-18 11:00N 51°24' W 057°00'4 3.7 100 / 3984.3 -2.7-3.0
2017-Feb-18 10:00N 51°24' W 057°06'0 0.0 070 / 8983.8 -2.2-2.4
2017-Feb-18 09:00N 51°24' W 057°06'0 0.0 070 / 7983.5 -2.7-2.9
2017-Feb-18 08:00N 51°24' W 057°06'0 0.0 070 / 6983.3 -2.7-2.9
2017-Feb-18 07:00N 51°24' W 057°06'0 0.0 070 / 9982.9 -3.0-3.2
2017-Feb-18 06:00N 51°24' W 057°06'0 0.0 070 / 8982.8 -2.5-2.8
2017-Feb-18 05:00N 51°24' W 057°06'0 0.0 070 / 4982.4 -2.3-2.7
2017-Feb-18 04:00N 51°24' W 057°06'4 3.7 060 / 7982.4 -2.3-2.8
2017-Feb-18 03:00N 51°24' W 057°00'0 0.0 060 / 6982.4 -2.1-2.8
2017-Feb-18 02:00N 51°24' W 057°00'0 0.0 060 / 4982.6 -1.6-2.5
2017-Feb-18 01:00N 51°24' W 057°00'0 0.0 080 / 3982.2 -1.2-2.6
2017-Feb-18 00:00N 51°24' W 057°00'0 0.0 070 / 5981.8 -0.6-3.1
2017-Feb-17 23:00N 51°24' W 057°00'4 3.7 090 / 5981.5 -0.8-3.3
2017-Feb-17 22:00N 51°24' W 057°06'0 0.0 100 / 4981.1 -0.1-3.1
2017-Feb-17 21:00N 51°24' W 057°06'0 0.0 140 / 6980.6 0.5-2.9
2017-Feb-17 20:00N 51°24' W 057°06'6 6.0 140 / 10979.7 0.5-3.0
2017-Feb-17 19:00N 51°18' W 057°06'4 3.8 110 / 5979.2 1.3-2.7
2017-Feb-17 18:00N 51°18' W 057°00'0 0.0 150 / 11978.4 1.4-2.9
2017-Feb-17 17:00N 51°18' W 057°00'7 7.1 150 / 9978.4 0.9-3.2
2017-Feb-17 16:00N 51°24' W 056°54'6 6.0 150 / 12978.3 1.9-2.4
2017-Feb-17 15:00N 51°18' W 056°54'0 0.0 160 / 14978.3 0.6-3.6
2017-Feb-17 14:00N 51°18' W 056°54'0 0.0 150 / 12978.1 -0.7-3.5
2017-Feb-17 13:00N 51°18' W 056°54'4 3.8 170 / 5978.0 -0.3-3.3
2017-Feb-17 12:00N 51°18' W 057°00'4 3.8 120 / 12977.0 -1.0-3.3
2017-Feb-17 11:00N 51°18' W 057°06'4 3.8 130 / 11976.4 -1.1-2.8
2017-Feb-17 10:00N 51°18' W 057°12'0 0.0 120 / 7975.7 4.0-0.6
2017-Feb-17 09:00N 51°18' W 057°12'0 0.0 110 / 8976.0 -1.2-2.8
2017-Feb-17 08:00N 51°18' W 057°12'0 0.0 090 / 7976.1 -1.7-2.6
2017-Feb-17 06:00N 51°18' W 057°12'4 3.8 060 / 11976.7 -1.9-2.4
2017-Feb-17 05:00N 51°18' W 057°06'0 0.0 070 / 11977.2 -1.9-2.4
2017-Feb-17 04:00N 51°18' W 057°06'0 0.0 050 / 11978.4 -2.0-2.4
2017-Feb-17 03:00N 51°18' W 057°06'4 3.8 070 / 10979.3 -1.8-2.0
2017-Feb-17 02:00N 51°18' W 057°00'0 0.0 060 / 11980.0 -1.7-1.9
2017-Feb-17 01:00N 51°18' W 057°00'0 0.0 050 / 12982.0 -1.6-1.8
2017-Feb-17 00:00N 51°18' W 057°00'4 3.8 050 / 11982.9 -1.5-1.6
2017-Feb-16 23:00N 51°18' W 056°54'0 0.0 060 / 10984.2 -1.3-1.4
2017-Feb-16 22:00N 51°18' W 056°54'0 0.0 040 / 16984.1 -1.0-1.2
2017-Feb-16 21:00N 51°18' W 056°54'7 7.1 050 / 25985.4 -0.6-0.9
2017-Feb-16 20:00N 51°12' W 056°48'0 0.0 050 / 20986.9 1.4 0.8
2017-Feb-16 19:00N 51°12' W 056°48'4 3.8 050 / 21988.8 4.5 1.7
2017-Feb-16 18:00N 51°12' W 056°54'6 6.0 040 / 20989.4 -0.9-1.9
2017-Feb-16 17:00N 51°18' W 056°54'0 0.0 060 / 17991.6 -0.7-2.5
2017-Feb-16 16:00N 51°18' W 056°54'0 0.0 050 / 17993.4 -0.5-2.8
2017-Feb-16 15:00N 51°18' W 056°54'0 0.0 050 / 15994.9 -1.7-2.8
2017-Feb-16 14:00N 51°18' W 056°54'4 3.8 040 / 13996.8 -1.9-3.5
2017-Feb-16 13:00N 51°18' W 056°48'1616.4 050 / 8998.6 -1.8-4.2
2017-Feb-16 12:00N 51°30' W 056°30'1312.7 010 / 9998.6 -1.2-3.8
2017-Feb-16 11:00N 51°36' W 056°12'1312.7 010 / 16998.7 -1.1-3.5
2017-Feb-16 10:00N 51°42' W 055°54'7 7.4 360 / 18998.0 -0.3-2.7
2017-Feb-16 09:00N 51°42' W 055°42'1514.9 010 / 15999.0 -2.0-3.5
2017-Feb-16 08:00N 51°42' W 055°18'6 6.0 340 / 25999.0 -2.6-4.1
2017-Feb-16 07:00N 51°36' W 055°18'1212.0 330 / 23999.2 -2.7-4.3
2017-Feb-16 06:00N 51°24' W 055°18'1212.0 330 / 21999.5 -2.8-4.1
2017-Feb-16 05:00N 51°12' W 055°18'1818.0 340 / 22999.4 -2.5-3.9
2017-Feb-16 04:00N 50°54' W 055°18'6 6.0 340 / 24998.9 -2.8-4.0
2017-Feb-16 03:00N 50°48' W 055°18'6 6.0 340 / 25999.8 -2.6-4.2
2017-Feb-16 02:00N 50°42' W 055°18'10 9.7 330 / 201000.2 -2.4-4.1
2017-Feb-16 01:00N 50°36' W 055°30'10 9.7 250 / 81000.0 -2.3-3.7
2017-Feb-16 00:00N 50°30' W 055°42'1414.2 260 / 8999.8 -2.1-3.3
2017-Feb-15 23:00N 50°18' W 055°54'1212.0 260 / 9999.9 -2.4-3.2
2017-Feb-15 22:00N 50°06' W 055°54'10 9.8 230 / 81000.2 -1.8-3.0
2017-Feb-15 21:00N 50°00' W 056°06'10 9.8 330 / 101000.3 -1.3-2.2
2017-Feb-15 20:00N 50°06' W 055°54'0 0.0 320 / 13999.7 3.1-1.4
2017-Feb-15 19:00N 50°06' W 055°54'0 0.0 340 / 20998.5 -1.8-3.4
2017-Feb-15 18:00N 50°06' W 055°54'10 9.8 330 / 22997.5 -2.1-4.1
2017-Feb-15 17:00N 50°00' W 056°06'7 7.1 340 / 22997.6 -1.8-4.4
2017-Feb-15 16:00N 50°06' W 056°00'4 3.8 340 / 13997.5 -0.1-2.7
2017-Feb-15 15:00N 50°06' W 055°54'4 3.8 340 / 24997.6 -2.5-4.0
2017-Feb-15 14:00N 50°06' W 056°00'7 7.1 350 / 19998.3 1.7-2.6
2017-Feb-15 13:00N 50°12' W 055°54'1414.2 360 / 18997.7 -0.1-3.5
2017-Feb-15 12:00N 50°24' W 055°42'2814.2 010 / 28997.3 1.8-2.8
2017-Feb-15 10:00N 50°48' W 055°18'1212.0 350 / 16997.3 6.7-0.8
2017-Feb-15 09:00N 51°00' W 055°18'1212.0 360 / 29998.0 13.0 0.9
2017-Feb-15 08:00N 51°12' W 055°18'1212.0 360 / 26998.7 10.8 1.0
2017-Feb-15 07:00N 51°24' W 055°18'1212.0 360 / 251000.2 11.2 1.0
2017-Feb-15 06:00N 51°36' W 055°18'7 7.1 360 / 301000.9 6.3-0.2
2017-Feb-15 05:00N 51°42' W 055°24'1111.2 360 / 291001.9 -4.4-5.5
2017-Feb-15 04:00N 51°42' W 055°42'1514.9 360 / 311002.1 -4.8-6.5
2017-Feb-15 03:00N 51°42' W 056°06'10 9.6 010 / 321003.1 -4.2-6.4
2017-Feb-15 02:00N 51°36' W 056°18'10 9.6 020 / 311004.3 -4.4-6.8
2017-Feb-15 01:00N 51°30' W 056°30'10 9.6 020 / 291005.4 -4.7-7.4
2017-Feb-15 00:00N 51°24' W 056°42'10 9.6 030 / 321005.2 -4.7-7.8
2017-Feb-14 23:00N 51°18' W 056°54'1616.5 030 / 311005.3 -4.5-7.6
2017-Feb-14 22:00N 51°06' W 057°12'1212.0 030 / 291007.0 -3.9-7.2
2017-Feb-14 21:00N 51°18' W 057°12'7 7.1 030 / 341007.8 -3.7-7.8
2017-Feb-14 20:00N 51°24' W 057°06'10 9.6 040 / 271007.5 -3.7-7.6
2017-Feb-14 19:00N 51°18' W 057°18'6 6.0 030 / 241007.5 -2.5-6.9
2017-Feb-14 18:00N 51°12' W 057°18'0 0.0 030 / 31007.4 -1.4-6.5
2017-Feb-14 17:00N 51°12' W 057°18'6 6.0 040 / 31007.7 -1.8-7.3
2017-Feb-14 16:00N 51°18' W 057°18'4 3.8 030 / 41008.5 -2.5-7.2
2017-Feb-14 15:00N 51°18' W 057°12'0 0.0 020 / 51009.7 -2.1-8.2
2017-Feb-14 14:00N 51°18' W 057°12'0 0.0 030 / 101009.8 -0.3-8.2
2017-Feb-14 13:00N 51°18' W 057°12'0 0.0 040 / 251010.8 -3.0-9.2
2017-Feb-14 12:00N 51°18' W 057°12'0 0.0 040 / 201011.8 -0.1-9.0
2017-Feb-14 11:00N 51°18' W 057°12'0 0.0 030 / 231012.3 -6.4-11.4
2017-Feb-14 10:00N 51°18' W 057°12'0 0.0 030 / 211012.4 -5.9-11.0
2017-Feb-14 09:00N 51°18' W 057°12'0 0.0 040 / 241013.1 -8.4-12.0
2017-Feb-14 08:00N 51°18' W 057°12'0 0.0 040 / 221013.6 -9.2-12.7
2017-Feb-14 07:00N 51°18' W 057°12'0 0.0 040 / 231014.7 -8.8-12.8
2017-Feb-14 06:00N 51°18' W 057°12'0 0.0 030 / 201015.8 -7.5-12.2
2017-Feb-14 05:00N 51°18' W 057°12'0 0.0 040 / 181016.6 -11.0-13.7
2017-Feb-14 04:00N 51°18' W 057°12'0 0.0 050 / 151017.2 -12.1-14.7
2017-Feb-14 03:00N 51°18' W 057°12'4 3.8 040 / 201017.7 -11.6-15.2
2017-Feb-14 02:00N 51°18' W 057°06'6 6.0 040 / 181019.2 0.1-9.3
2017-Feb-14 01:00N 51°24' W 057°06'6 6.0 040 / 191019.7 -14.3-17.8
2017-Feb-14 00:00N 51°18' W 057°06'1312.6 040 / 171021.1 -14.1-17.1
2017-Feb-13 23:00N 51°06' W 057°12'0 0.0 060 / 211021.2 -13.7-15.6
2017-Feb-13 22:00N 51°06' W 057°12'1312.8 060 / 201022.1 -13.7-15.9
2017-Feb-13 21:00N 51°12' W 056°54'1414.2 050 / 251021.3 -14.5-16.8
2017-Feb-13 20:00N 51°24' W 057°06'0 0.0 050 / 181022.4 -12.4-17.3
2017-Feb-13 19:00N 51°24' W 057°06'10 9.6 080 / 151023.3 -12.9-17.5
2017-Feb-13 18:00N 51°18' W 056°54'7 7.1 100 / 111023.6 -13.0-16.6
2017-Feb-13 17:00N 51°12' W 056°48'0 0.0 060 / 171023.8 -13.6-17.6
2017-Feb-13 16:00N 51°12' W 056°48'0 0.0 060 / 171024.3 -13.6-17.7
2017-Feb-13 15:00N 51°12' W 056°48'7 7.1 060 / 101025.7 -7.9-14.2
2017-Feb-13 14:00N 51°18' W 056°54'4 3.8 050 / 231025.9 -15.7-18.8
2017-Feb-13 13:00N 51°18' W 057°00'11 5.6 050 / 221026.7 -15.9-19.3
2017-Feb-13 11:00N 51°18' W 057°18'10 9.6 070 / 221027.4 -15.3-18.4
2017-Feb-13 10:00N 51°12' W 057°30'10 9.6 070 / 251027.6 -14.6-18.5
2017-Feb-13 09:00N 51°06' W 057°42'10 9.6 060 / 261027.1 -13.7-16.1
2017-Feb-13 08:00N 51°00' W 057°54'10 9.7 060 / 251027.2 -12.6-16.8
2017-Feb-13 07:00N 50°54' W 058°06'8 7.6 030 / 121028.0 -14.2-17.0
2017-Feb-13 06:00N 50°54' W 058°18'10 9.7 020 / 131028.0 -13.3-16.1
2017-Feb-13 05:00N 50°48' W 058°30'10 9.7 030 / 111028.3 -12.1-15.9
2017-Feb-13 04:00N 50°42' W 058°42'10 9.7 040 / 101028.3 -11.7-17.0
2017-Feb-13 03:00N 50°36' W 058°54'10 9.7 060 / 81028.6 -11.7-17.3
2017-Feb-13 02:00N 50°30' W 059°06'7 7.1 060 / 91028.6 -11.8-17.1
2017-Feb-13 01:00N 50°24' W 059°12'10 9.7 030 / 61029.2 -11.2-17.1
2017-Feb-13 00:00N 50°18' W 059°24'10 9.7 010 / 41029.9 -11.1-17.6
2017-Feb-12 23:00N 50°12' W 059°36'10 9.8 310 / 41030.2 -10.9-16.6
2017-Feb-12 22:00N 50°06' W 059°48'1312.6 300 / 41029.9 -11.0-15.8
2017-Feb-12 21:00N 49°54' W 059°54'8 7.7 010 / 21029.8 -11.0-15.0
2017-Feb-12 20:00N 49°54' W 060°06'1313.0 110 / 11029.6 -10.9-15.1
2017-Feb-12 19:00N 50°00' W 059°48'7 7.1 310 / 51029.2 -11.4-15.9
2017-Feb-12 18:00N 50°06' W 059°42'0 0.0 300 / 61029.4 -11.7-16.5
2017-Feb-12 17:00N 50°06' W 059°42'   310 / 71029.7 -11.9-17.1
Track history (hours):
 
Tides and Currents Weather Stations Pressure Air Temp Water Temp Dewpoint Dewpoint Depression Visibility Wind Speed Wind Dir Waves Ship Positions

Oceanographic research ship CCGS Terry Fox (Canada)

Detailed information on ship capabilities available from ARCUS's ALIAS (Arctic Logistics Information and Support) project.

Last reported at 2017-Feb-22 16:32 UTC. Time now 2017-Feb-22 17:27 UTC.
Position N 48°58' W 057°57'.

Length 88 m; beam 17.82 m; draft 2 m.

Type: SAR. MMSI: 316122000.

Date/timePositionNaut miles runAvg speedWind from/ knotsBaromVisibWave heightAir tempDewpointWater temp
2017-Feb-22 16:32N 48°58' W 057°57'4 7.3
2017-Feb-22 16:00N 48°54' W 057°54'4 8.9 030 / 51015.7 -2.5-6.6
2017-Feb-22 15:32N 48°58' W 057°57'4 7.3
2017-Feb-22 15:00N 48°54' W 057°54'4 8.9 230 / 21016.5 -3.0-6.5
2017-Feb-22 14:32N 48°58' W 057°57'4 7.3
2017-Feb-22 14:00N 48°54' W 057°54'4 8.9 340 / 21017.6 -3.9-6.9
2017-Feb-22 13:32N 48°58' W 057°57'4 7.3
2017-Feb-22 13:00N 48°54' W 057°54'4 8.9 020 / 21018.8 -5.1-7.5
2017-Feb-22 12:32N 48°58' W 057°57'4 7.3
2017-Feb-22 12:00N 48°54' W 057°54'4 8.9 1019.4 -4.4-7.4
2017-Feb-22 11:32N 48°58' W 057°57'4 7.3
2017-Feb-22 11:00N 48°54' W 057°54'410.2 130 / 11019.6 -5.0-7.5
2017-Feb-22 10:33N 48°58' W 057°57'4 7.5
2017-Feb-22 10:00N 48°54' W 058°00'716.1 160 / 61019.4 -6.7-8.7
2017-Feb-22 09:33N 49°00' W 058°05'1 0.9
2017-Feb-22 09:00N 49°00' W 058°06'612.9 160 / 81019.5 -6.7-8.4
2017-Feb-22 08:33N 49°05' W 058°09'2 3.4
2017-Feb-22 08:00N 49°06' W 058°12'7 9.6 160 / 51019.7 -5.3-7.4
2017-Feb-22 07:19N 49°13' W 058°11'1 2.3
2017-Feb-22 07:00N 49°12' W 058°12'7 7.2 110 / 61019.5 -4.3-6.6
2017-Feb-22 06:00N 49°18' W 058°18'7 7.2 190 / 81020.0 -3.6-6.4
2017-Feb-22 05:00N 49°24' W 058°24'7 7.2 180 / 121020.5 -3.5-6.4
2017-Feb-22 04:00N 49°30' W 058°18'0 0.0 200 / 141020.6 -3.6-6.6
2017-Feb-22 03:00N 49°30' W 058°18'7 7.2 190 / 111020.9 -3.8-6.8
2017-Feb-22 02:00N 49°36' W 058°12'1312.6 200 / 111021.9 -3.9-6.9
2017-Feb-22 01:00N 49°48' W 058°06'7 7.1 200 / 131021.7 -4.2-7.1
2017-Feb-22 00:00N 49°54' W 058°00'1818.4 220 / 151021.6 -4.8-7.1
2017-Feb-21 23:00N 50°12' W 057°54'1312.6 220 / 121021.8 -5.4-7.7
2017-Feb-21 22:00N 50°24' W 057°48'1414.2 210 / 101021.9 -5.7-8.8
2017-Feb-21 21:00N 50°36' W 057°36'1312.6 230 / 121021.7 -5.9-9.7
2017-Feb-21 20:00N 50°48' W 057°30'7 7.1 240 / 121021.6 -7.0-10.0
2017-Feb-21 19:00N 50°54' W 057°24'1716.5 230 / 81020.8 -7.1-9.5
2017-Feb-21 18:00N 51°06' W 057°06'1414.2 240 / 101020.7 -6.6-9.2
2017-Feb-21 17:00N 51°18' W 056°54'0 0.0 210 / 81021.2 -5.4-8.0
2017-Feb-21 16:00N 51°18' W 056°54'7 7.1 210 / 41021.7 -5.8-9.0
2017-Feb-21 15:00N 51°12' W 056°48'0 0.0 280 / 11022.2 -4.5-7.7
2017-Feb-21 14:00N 51°12' W 056°48'4 3.8 070 / 11022.7 -5.8-8.7
2017-Feb-21 13:00N 51°12' W 056°54'1414.2 360 / 51022.6 -6.8-9.6
2017-Feb-21 12:00N 51°24' W 057°06'7 7.1 040 / 21022.3 -6.8-9.8
2017-Feb-21 11:00N 51°18' W 057°12'8 7.5 050 / 21022.0 -6.2-9.8
2017-Feb-21 10:00N 51°18' W 057°24'0 0.0 280 / 21021.8 -6.3-10.0
2017-Feb-21 09:00N 51°18' W 057°24'4 3.8 320 / 11021.8 -5.6-9.7
2017-Feb-21 08:00N 51°18' W 057°18'0 0.0 040 / 31021.1 -6.8-10.6
2017-Feb-21 07:00N 51°18' W 057°18'0 0.0 010 / 71020.6 -6.9-11.4
2017-Feb-21 06:00N 51°18' W 057°18'0 0.0 350 / 61020.8 -4.6-9.2
2017-Feb-21 05:00N 51°18' W 057°18'4 3.8 340 / 61020.7 -3.4-7.6
2017-Feb-21 04:00N 51°18' W 057°12'0 0.0 350 / 81020.8 -5.8-9.1
2017-Feb-21 03:00N 51°18' W 057°12'0 0.0 360 / 91021.0 -5.8-9.3
2017-Feb-21 02:00N 51°18' W 057°12'0 0.0 340 / 111021.0 -5.4-9.2
2017-Feb-21 00:00N 51°18' W 057°12'4 3.8 020 / 71019.8 -3.5-6.8
2017-Feb-20 23:00N 51°18' W 057°06'0 0.0 030 / 71018.8 -3.0-6.2
2017-Feb-20 22:00N 51°18' W 057°06'0 0.0 340 / 91017.9 10.4-3.1
2017-Feb-20 21:00N 51°18' W 057°06'0 0.0 300 / 11017.5 -1.8-4.8
2017-Feb-20 20:00N 51°18' W 057°06'0 0.0 060 / 11016.8 -1.8-4.7
2017-Feb-20 19:00N 51°18' W 057°06'4 3.8 060 / 51016.4 -2.7-5.5
2017-Feb-20 18:00N 51°18' W 057°00'0 0.0 020 / 81015.9 -2.9-6.2
2017-Feb-20 17:00N 51°18' W 057°00'6 6.0 360 / 61015.6 3.6-4.4
2017-Feb-20 16:00N 51°24' W 057°00'1414.2 020 / 61015.1 -3.3-6.0
2017-Feb-20 15:00N 51°12' W 056°48'0 0.0 350 / 51014.9 -1.8-4.8
2017-Feb-20 14:00N 51°12' W 056°48'0 0.0 020 / 41014.1 -4.5-5.7
2017-Feb-20 13:00N 51°12' W 056°48'10 9.6 030 / 31013.2 -5.5-6.5
2017-Feb-20 12:00N 51°18' W 057°00'7 7.1 020 / 51012.7 -5.1-7.6
2017-Feb-20 11:00N 51°24' W 057°06'10 9.6 360 / 81011.9 -5.5-7.0
2017-Feb-20 10:00N 51°18' W 057°18'0 0.0 360 / 91011.4 -5.3-8.1
2017-Feb-20 09:00N 51°18' W 057°18'0 0.0 020 / 61010.4 -5.4-8.5
2017-Feb-20 08:00N 51°18' W 057°18'4 3.8 010 / 91009.0 -5.5-8.2
2017-Feb-20 07:00N 51°18' W 057°12'0 0.0 030 / 61008.3 -5.2-7.3
2017-Feb-20 06:00N 51°18' W 057°12'0 0.0 360 / 11008.3 -6.3-7.8
2017-Feb-20 05:00N 51°18' W 057°12'4 3.8 140 / 51007.7 -6.0-7.7
2017-Feb-20 04:00N 51°18' W 057°06'0 0.0 050 / 51006.7 -5.7-8.3
2017-Feb-20 03:00N 51°18' W 057°06'0 0.0 030 / 71005.8 -5.8-8.4
2017-Feb-20 02:00N 51°18' W 057°06'0 0.0 030 / 81005.7 -5.9-8.6
2017-Feb-20 01:00N 51°18' W 057°06'0 0.0 010 / 41005.0 -6.5-8.8
2017-Feb-20 00:00N 51°18' W 057°06'0 0.0 300 / 61004.4 -7.8-9.8
2017-Feb-19 23:00N 51°18' W 057°06'0 0.0 300 / 51003.3 -7.7-10.3
2017-Feb-19 22:00N 51°18' W 057°06'4 3.8 270 / 61002.5 -7.5-10.6
2017-Feb-19 21:00N 51°18' W 057°00'0 0.0 280 / 51001.3 -7.0-10.5
2017-Feb-19 20:00N 51°18' W 057°00'0 0.0 230 / 21000.4 -3.4-9.0
2017-Feb-19 19:00N 51°18' W 057°00'0 0.0 200 / 3999.9 -4.5-10.0
2017-Feb-19 18:00N 51°18' W 057°00'4 3.8 210 / 4999.4 -5.6-10.7
2017-Feb-19 17:00N 51°18' W 056°54'0 0.0 210 / 3999.5 -5.2-10.7
2017-Feb-19 16:00N 51°18' W 056°54'0 0.0 180 / 2999.6 -5.6-10.2
2017-Feb-19 15:00N 51°18' W 056°54'7 7.1 270 / 4999.5 -7.4-10.6
2017-Feb-19 14:00N 51°12' W 056°48'0 0.0 290 / 7999.5 -7.2-9.8
2017-Feb-19 13:00N 51°12' W 056°48'10 9.6 290 / 10999.1 -7.5-9.3
2017-Feb-19 12:00N 51°18' W 057°00'7 7.1 270 / 7999.0 -8.8-10.7
2017-Feb-19 11:00N 51°24' W 057°06'6 6.0 270 / 9998.5 -9.4-11.0
2017-Feb-19 10:00N 51°18' W 057°06'0 0.0 230 / 8998.1 -8.5-10.5
2017-Feb-19 09:00N 51°18' W 057°06'0 0.0 270 / 8997.7 -8.0-10.1
2017-Feb-19 08:00N 51°18' W 057°06'0 0.0 240 / 8997.8 -8.3-9.6
2017-Feb-19 07:00N 51°18' W 057°06'4 3.8 240 / 8997.8 -8.4-9.8
2017-Feb-19 06:00N 51°18' W 057°00'0 0.0 240 / 9997.9 -8.1-9.9
2017-Feb-19 05:00N 51°18' W 057°00'0 0.0 270 / 14997.2 -7.3-9.5
2017-Feb-19 04:00N 51°18' W 057°00'0 0.0 250 / 14996.5 -6.1-8.1
2017-Feb-19 03:00N 51°18' W 057°00'0 0.0 260 / 13995.9 -4.9-7.1
2017-Feb-19 02:00N 51°18' W 057°00'0 0.0 220 / 19995.2 -4.4-6.8
2017-Feb-19 01:00N 51°18' W 057°00'0 0.0 230 / 17994.7 -3.9-5.9
2017-Feb-19 00:00N 51°18' W 057°00'0 0.0 220 / 19994.0 -3.7-5.4
2017-Feb-18 23:00N 51°18' W 057°00'0 0.0 220 / 18993.4 -3.8-5.5
2017-Feb-18 22:00N 51°18' W 057°00'0 0.0 210 / 21992.5 -3.9-5.2
2017-Feb-18 21:00N 51°18' W 057°00'4 3.8 210 / 18991.6 -3.7-4.6
2017-Feb-18 20:00N 51°18' W 057°06'4 3.8 220 / 17990.5 -3.2-3.9
2017-Feb-18 19:00N 51°18' W 057°00'0 0.0 210 / 13989.5 -2.9-3.6
2017-Feb-18 18:00N 51°18' W 057°00'0 0.0 230 / 8988.6 -3.0-3.8
2017-Feb-18 17:00N 51°18' W 057°00'4 3.8 250 / 8988.0 -3.7-4.1
2017-Feb-18 16:00N 51°18' W 056°54'4 3.8 260 / 5987.3 -2.3-2.6
2017-Feb-18 15:00N 51°18' W 057°00'4 3.8 020 / 5986.9 -2.7-3.0
2017-Feb-18 14:00N 51°18' W 056°54'0 0.0 030 / 8986.2 -2.8-3.0
2017-Feb-18 13:00N 51°18' W 056°54'4 3.8 040 / 7985.5 -2.9-3.1
2017-Feb-18 12:00N 51°18' W 057°00'6 6.0 040 / 8984.7 -3.0-3.2
2017-Feb-18 11:00N 51°24' W 057°00'4 3.7 100 / 3984.3 -2.7-3.0
2017-Feb-18 10:00N 51°24' W 057°06'0 0.0 070 / 8983.8 -2.2-2.4
2017-Feb-18 09:00N 51°24' W 057°06'0 0.0 070 / 7983.5 -2.7-2.9
2017-Feb-18 08:00N 51°24' W 057°06'0 0.0 070 / 6983.3 -2.7-2.9
2017-Feb-18 07:00N 51°24' W 057°06'0 0.0 070 / 9982.9 -3.0-3.2
2017-Feb-18 06:00N 51°24' W 057°06'0 0.0 070 / 8982.8 -2.5-2.8
2017-Feb-18 05:00N 51°24' W 057°06'0 0.0 070 / 4982.4 -2.3-2.7
2017-Feb-18 04:00N 51°24' W 057°06'4 3.7 060 / 7982.4 -2.3-2.8
2017-Feb-18 03:00N 51°24' W 057°00'0 0.0 060 / 6982.4 -2.1-2.8
2017-Feb-18 02:00N 51°24' W 057°00'0 0.0 060 / 4982.6 -1.6-2.5
2017-Feb-18 01:00N 51°24' W 057°00'0 0.0 080 / 3982.2 -1.2-2.6
2017-Feb-18 00:00N 51°24' W 057°00'0 0.0 070 / 5981.8 -0.6-3.1
2017-Feb-17 23:00N 51°24' W 057°00'4 3.7 090 / 5981.5 -0.8-3.3
2017-Feb-17 22:00N 51°24' W 057°06'0 0.0 100 / 4981.1 -0.1-3.1
2017-Feb-17 21:00N 51°24' W 057°06'0 0.0 140 / 6980.6 0.5-2.9
2017-Feb-17 20:00N 51°24' W 057°06'6 6.0 140 / 10979.7 0.5-3.0
2017-Feb-17 19:00N 51°18' W 057°06'4 3.8 110 / 5979.2 1.3-2.7
2017-Feb-17 18:00N 51°18' W 057°00'0 0.0 150 / 11978.4 1.4-2.9
2017-Feb-17 17:00N 51°18' W 057°00'7 7.1 150 / 9978.4 0.9-3.2
2017-Feb-17 16:00N 51°24' W 056°54'6 6.0 150 / 12978.3 1.9-2.4
2017-Feb-17 15:00N 51°18' W 056°54'0 0.0 160 / 14978.3 0.6-3.6
2017-Feb-17 14:00N 51°18' W 056°54'0 0.0 150 / 12978.1 -0.7-3.5
2017-Feb-17 13:00N 51°18' W 056°54'4 3.8 170 / 5978.0 -0.3-3.3
2017-Feb-17 12:00N 51°18' W 057°00'4 3.8 120 / 12977.0 -1.0-3.3
2017-Feb-17 11:00N 51°18' W 057°06'4 3.8 130 / 11976.4 -1.1-2.8
2017-Feb-17 10:00N 51°18' W 057°12'0 0.0 120 / 7975.7 4.0-0.6
2017-Feb-17 09:00N 51°18' W 057°12'0 0.0 110 / 8976.0 -1.2-2.8
2017-Feb-17 08:00N 51°18' W 057°12'0 0.0 090 / 7976.1 -1.7-2.6
2017-Feb-17 06:00N 51°18' W 057°12'4 3.8 060 / 11976.7 -1.9-2.4
2017-Feb-17 05:00N 51°18' W 057°06'0 0.0 070 / 11977.2 -1.9-2.4
2017-Feb-17 04:00N 51°18' W 057°06'0 0.0 050 / 11978.4 -2.0-2.4
2017-Feb-17 03:00N 51°18' W 057°06'4 3.8 070 / 10979.3 -1.8-2.0
2017-Feb-17 02:00N 51°18' W 057°00'0 0.0 060 / 11980.0 -1.7-1.9
2017-Feb-17 01:00N 51°18' W 057°00'0 0.0 050 / 12982.0 -1.6-1.8
2017-Feb-17 00:00N 51°18' W 057°00'4 3.8 050 / 11982.9 -1.5-1.6
2017-Feb-16 23:00N 51°18' W 056°54'0 0.0 060 / 10984.2 -1.3-1.4
2017-Feb-16 22:00N 51°18' W 056°54'0 0.0 040 / 16984.1 -1.0-1.2
2017-Feb-16 21:00N 51°18' W 056°54'7 7.1 050 / 25985.4 -0.6-0.9
2017-Feb-16 20:00N 51°12' W 056°48'0 0.0 050 / 20986.9 1.4 0.8
2017-Feb-16 19:00N 51°12' W 056°48'4 3.8 050 / 21988.8 4.5 1.7
2017-Feb-16 18:00N 51°12' W 056°54'6 6.0 040 / 20989.4 -0.9-1.9
2017-Feb-16 17:00N 51°18' W 056°54'0 0.0 060 / 17991.6 -0.7-2.5
2017-Feb-16 16:00N 51°18' W 056°54'0 0.0 050 / 17993.4 -0.5-2.8
2017-Feb-16 15:00N 51°18' W 056°54'0 0.0 050 / 15994.9 -1.7-2.8
2017-Feb-16 14:00N 51°18' W 056°54'4 3.8 040 / 13996.8 -1.9-3.5
2017-Feb-16 13:00N 51°18' W 056°48'1616.4 050 / 8998.6 -1.8-4.2
2017-Feb-16 12:00N 51°30' W 056°30'1312.7 010 / 9998.6 -1.2-3.8
2017-Feb-16 11:00N 51°36' W 056°12'1312.7 010 / 16998.7 -1.1-3.5
2017-Feb-16 10:00N 51°42' W 055°54'7 7.4 360 / 18998.0 -0.3-2.7
2017-Feb-16 09:00N 51°42' W 055°42'1514.9 010 / 15999.0 -2.0-3.5
2017-Feb-16 08:00N 51°42' W 055°18'6 6.0 340 / 25999.0 -2.6-4.1
2017-Feb-16 07:00N 51°36' W 055°18'1212.0 330 / 23999.2 -2.7-4.3
2017-Feb-16 06:00N 51°24' W 055°18'1212.0 330 / 21999.5 -2.8-4.1
2017-Feb-16 05:00N 51°12' W 055°18'1818.0 340 / 22999.4 -2.5-3.9
2017-Feb-16 04:00N 50°54' W 055°18'6 6.0 340 / 24998.9 -2.8-4.0
2017-Feb-16 03:00N 50°48' W 055°18'6 6.0 340 / 25999.8 -2.6-4.2
2017-Feb-16 02:00N 50°42' W 055°18'10 9.7 330 / 201000.2 -2.4-4.1
2017-Feb-16 01:00N 50°36' W 055°30'10 9.7 250 / 81000.0 -2.3-3.7
2017-Feb-16 00:00N 50°30' W 055°42'1414.2 260 / 8999.8 -2.1-3.3
2017-Feb-15 23:00N 50°18' W 055°54'1212.0 260 / 9999.9 -2.4-3.2
2017-Feb-15 22:00N 50°06' W 055°54'10 9.8 230 / 81000.2 -1.8-3.0
2017-Feb-15 21:00N 50°00' W 056°06'10 9.8 330 / 101000.3 -1.3-2.2
2017-Feb-15 20:00N 50°06' W 055°54'0 0.0 320 / 13999.7 3.1-1.4
2017-Feb-15 19:00N 50°06' W 055°54'0 0.0 340 / 20998.5 -1.8-3.4
2017-Feb-15 18:00N 50°06' W 055°54'10 9.8 330 / 22997.5 -2.1-4.1
2017-Feb-15 17:00N 50°00' W 056°06'7 7.1 340 / 22997.6 -1.8-4.4
2017-Feb-15 16:00N 50°06' W 056°00'4 3.8 340 / 13997.5 -0.1-2.7
2017-Feb-15 15:00N 50°06' W 055°54'4 3.8 340 / 24997.6 -2.5-4.0
2017-Feb-15 14:00N 50°06' W 056°00'7 7.1 350 / 19998.3 1.7-2.6
2017-Feb-15 13:00N 50°12' W 055°54'1414.2 360 / 18997.7 -0.1-3.5
2017-Feb-15 12:00N 50°24' W 055°42'2814.2 010 / 28997.3 1.8-2.8
2017-Feb-15 10:00N 50°48' W 055°18'1212.0 350 / 16997.3 6.7-0.8
2017-Feb-15 09:00N 51°00' W 055°18'1212.0 360 / 29998.0 13.0 0.9
2017-Feb-15 08:00N 51°12' W 055°18'1212.0 360 / 26998.7 10.8 1.0
2017-Feb-15 07:00N 51°24' W 055°18'1212.0 360 / 251000.2 11.2 1.0
2017-Feb-15 06:00N 51°36' W 055°18'7 7.1 360 / 301000.9 6.3-0.2
2017-Feb-15 05:00N 51°42' W 055°24'1111.2 360 / 291001.9 -4.4-5.5
2017-Feb-15 04:00N 51°42' W 055°42'1514.9 360 / 311002.1 -4.8-6.5
2017-Feb-15 03:00N 51°42' W 056°06'10 9.6 010 / 321003.1 -4.2-6.4
2017-Feb-15 02:00N 51°36' W 056°18'10 9.6 020 / 311004.3 -4.4-6.8
2017-Feb-15 01:00N 51°30' W 056°30'10 9.6 020 / 291005.4 -4.7-7.4
2017-Feb-15 00:00N 51°24' W 056°42'10 9.6 030 / 321005.2 -4.7-7.8
2017-Feb-14 23:00N 51°18' W 056°54'1616.5 030 / 311005.3 -4.5-7.6
2017-Feb-14 22:00N 51°06' W 057°12'1212.0 030 / 291007.0 -3.9-7.2
2017-Feb-14 21:00N 51°18' W 057°12'7 7.1 030 / 341007.8 -3.7-7.8
2017-Feb-14 20:00N 51°24' W 057°06'10 9.6 040 / 271007.5 -3.7-7.6
2017-Feb-14 19:00N 51°18' W 057°18'6 6.0 030 / 241007.5 -2.5-6.9
2017-Feb-14 18:00N 51°12' W 057°18'0 0.0 030 / 31007.4 -1.4-6.5
2017-Feb-14 17:00N 51°12' W 057°18'6 6.0 040 / 31007.7 -1.8-7.3
2017-Feb-14 16:00N 51°18' W 057°18'4 3.8 030 / 41008.5 -2.5-7.2
2017-Feb-14 15:00N 51°18' W 057°12'0 0.0 020 / 51009.7 -2.1-8.2
2017-Feb-14 14:00N 51°18' W 057°12'0 0.0 030 / 101009.8 -0.3-8.2
2017-Feb-14 13:00N 51°18' W 057°12'0 0.0 040 / 251010.8 -3.0-9.2
2017-Feb-14 12:00N 51°18' W 057°12'0 0.0 040 / 201011.8 -0.1-9.0
2017-Feb-14 11:00N 51°18' W 057°12'0 0.0 030 / 231012.3 -6.4-11.4
2017-Feb-14 10:00N 51°18' W 057°12'0 0.0 030 / 211012.4 -5.9-11.0
2017-Feb-14 09:00N 51°18' W 057°12'0 0.0 040 / 241013.1 -8.4-12.0
2017-Feb-14 08:00N 51°18' W 057°12'0 0.0 040 / 221013.6 -9.2-12.7
2017-Feb-14 07:00N 51°18' W 057°12'0 0.0 040 / 231014.7 -8.8-12.8
2017-Feb-14 06:00N 51°18' W 057°12'0 0.0 030 / 201015.8 -7.5-12.2
2017-Feb-14 05:00N 51°18' W 057°12'0 0.0 040 / 181016.6 -11.0-13.7
2017-Feb-14 04:00N 51°18' W 057°12'0 0.0 050 / 151017.2 -12.1-14.7
2017-Feb-14 03:00N 51°18' W 057°12'4 3.8 040 / 201017.7 -11.6-15.2
2017-Feb-14 02:00N 51°18' W 057°06'6 6.0 040 / 181019.2 0.1-9.3
2017-Feb-14 01:00N 51°24' W 057°06'6 6.0 040 / 191019.7 -14.3-17.8
2017-Feb-14 00:00N 51°18' W 057°06'1312.6 040 / 171021.1 -14.1-17.1
2017-Feb-13 23:00N 51°06' W 057°12'0 0.0 060 / 211021.2 -13.7-15.6
2017-Feb-13 22:00N 51°06' W 057°12'1312.8 060 / 201022.1 -13.7-15.9
2017-Feb-13 21:00N 51°12' W 056°54'1414.2 050 / 251021.3 -14.5-16.8
2017-Feb-13 20:00N 51°24' W 057°06'0 0.0 050 / 181022.4 -12.4-17.3
2017-Feb-13 19:00N 51°24' W 057°06'10 9.6 080 / 151023.3 -12.9-17.5
2017-Feb-13 18:00N 51°18' W 056°54'7 7.1 100 / 111023.6 -13.0-16.6
2017-Feb-13 17:00N 51°12' W 056°48'0 0.0 060 / 171023.8 -13.6-17.6
2017-Feb-13 16:00N 51°12' W 056°48'0 0.0 060 / 171024.3 -13.6-17.7
2017-Feb-13 15:00N 51°12' W 056°48'7 7.1 060 / 101025.7 -7.9-14.2
2017-Feb-13 14:00N 51°18' W 056°54'4 3.8 050 / 231025.9 -15.7-18.8
2017-Feb-13 13:00N 51°18' W 057°00'11 5.6 050 / 221026.7 -15.9-19.3
2017-Feb-13 11:00N 51°18' W 057°18'10 9.6 070 / 221027.4 -15.3-18.4
2017-Feb-13 10:00N 51°12' W 057°30'10 9.6 070 / 251027.6 -14.6-18.5
2017-Feb-13 09:00N 51°06' W 057°42'10 9.6 060 / 261027.1 -13.7-16.1
2017-Feb-13 08:00N 51°00' W 057°54'10 9.7 060 / 251027.2 -12.6-16.8
2017-Feb-13 07:00N 50°54' W 058°06'8 7.6 030 / 121028.0 -14.2-17.0
2017-Feb-13 06:00N 50°54' W 058°18'10 9.7 020 / 131028.0 -13.3-16.1
2017-Feb-13 05:00N 50°48' W 058°30'10 9.7 030 / 111028.3 -12.1-15.9
2017-Feb-13 04:00N 50°42' W 058°42'10 9.7 040 / 101028.3 -11.7-17.0
2017-Feb-13 03:00N 50°36' W 058°54'10 9.7 060 / 81028.6 -11.7-17.3
2017-Feb-13 02:00N 50°30' W 059°06'7 7.1 060 / 91028.6 -11.8-17.1
2017-Feb-13 01:00N 50°24' W 059°12'10 9.7 030 / 61029.2 -11.2-17.1
2017-Feb-13 00:00N 50°18' W 059°24'10 9.7 010 / 41029.9 -11.1-17.6
2017-Feb-12 23:00N 50°12' W 059°36'10 9.8 310 / 41030.2 -10.9-16.6
2017-Feb-12 22:00N 50°06' W 059°48'1312.6 300 / 41029.9 -11.0-15.8
2017-Feb-12 21:00N 49°54' W 059°54'8 7.7 010 / 21029.8 -11.0-15.0
2017-Feb-12 20:00N 49°54' W 060°06'1313.0 110 / 11029.6 -10.9-15.1
2017-Feb-12 19:00N 50°00' W 059°48'7 7.1 310 / 51029.2 -11.4-15.9
2017-Feb-12 18:00N 50°06' W 059°42'0 0.0 300 / 61029.4 -11.7-16.5
2017-Feb-12 17:00N 50°06' W 059°42'   310 / 71029.7 -11.9-17.1

Dump ship's entire track history